sensor_id;sensor_type;location;lat;lon;timestamp;pressure;altitude;pressure_sealevel;temperature;humidity
40245;BME280;25963;42.694;23.600;2023-03-04T00:01:45;95231.75;;;5.14;100.00
40245;BME280;25963;42.694;23.600;2023-03-04T00:04:10;95226.63;;;5.21;100.00
40245;BME280;25963;42.694;23.600;2023-03-04T00:06:36;95230.47;;;5.25;100.00
40245;BME280;25963;42.694;23.600;2023-03-04T00:09:02;95227.78;;;5.18;100.00
40245;BME280;25963;42.694;23.600;2023-03-04T00:11:29;95223.00;;;5.07;100.00
40245;BME280;25963;42.694;23.600;2023-03-04T00:13:55;95229.03;;;5.08;100.00
40245;BME280;25963;42.694;23.600;2023-03-04T00:16:20;95226.44;;;5.08;100.00
40245;BME280;25963;42.694;23.600;2023-03-04T00:18:46;95221.41;;;4.91;100.00
40245;BME280;25963;42.694;23.600;2023-03-04T00:21:11;95209.66;;;4.87;100.00
40245;BME280;25963;42.694;23.600;2023-03-04T00:23:37;95224.53;;;4.87;100.00
40245;BME280;25963;42.694;23.600;2023-03-04T00:26:02;95211.03;;;4.83;100.00
40245;BME280;25963;42.694;23.600;2023-03-04T00:28:28;95214.72;;;4.74;100.00
40245;BME280;25963;42.694;23.600;2023-03-04T00:30:53;95210.03;;;4.84;100.00
40245;BME280;25963;42.694;23.600;2023-03-04T00:33:18;95206.09;;;4.88;100.00
40245;BME280;25963;42.694;23.600;2023-03-04T00:35:44;95215.97;;;4.78;100.00
40245;BME280;25963;42.694;23.600;2023-03-04T00:38:09;95211.91;;;4.61;100.00
40245;BME280;25963;42.694;23.600;2023-03-04T00:40:35;95210.22;;;4.68;100.00
40245;BME280;25963;42.694;23.600;2023-03-04T00:43:01;95205.63;;;4.85;100.00
40245;BME280;25963;42.694;23.600;2023-03-04T00:45:26;95215.00;;;4.79;100.00
40245;BME280;25963;42.694;23.600;2023-03-04T00:47:52;95208.69;;;4.73;100.00
40245;BME280;25963;42.694;23.600;2023-03-04T00:50:17;95202.38;;;4.83;100.00
40245;BME280;25963;42.694;23.600;2023-03-04T00:52:43;95196.59;;;4.72;100.00
40245;BME280;25963;42.694;23.600;2023-03-04T00:55:08;95199.94;;;4.81;100.00
40245;BME280;25963;42.694;23.600;2023-03-04T00:57:34;95205.00;;;4.68;100.00
40245;BME280;25963;42.694;23.600;2023-03-04T01:00:00;95200.28;;;4.78;100.00
40245;BME280;25963;42.694;23.600;2023-03-04T01:02:25;95199.13;;;4.80;100.00
40245;BME280;25963;42.694;23.600;2023-03-04T01:04:50;95198.97;;;4.82;100.00
40245;BME280;25963;42.694;23.600;2023-03-04T01:07:16;95195.72;;;4.80;100.00
40245;BME280;25963;42.694;23.600;2023-03-04T01:09:41;95202.38;;;4.83;100.00
40245;BME280;25963;42.694;23.600;2023-03-04T01:12:07;95199.69;;;4.91;100.00
40245;BME280;25963;42.694;23.600;2023-03-04T01:14:32;95198.84;;;4.90;100.00
40245;BME280;25963;42.694;23.600;2023-03-04T01:16:58;95192.28;;;4.94;100.00
40245;BME280;25963;42.694;23.600;2023-03-04T01:19:23;95195.50;;;4.96;100.00
40245;BME280;25963;42.694;23.600;2023-03-04T01:21:49;95187.88;;;4.95;100.00
40245;BME280;25963;42.694;23.600;2023-03-04T01:24:14;95193.09;;;4.95;100.00
40245;BME280;25963;42.694;23.600;2023-03-04T01:26:40;95182.28;;;4.98;100.00
40245;BME280;25963;42.694;23.600;2023-03-04T01:29:05;95178.50;;;5.00;100.00
40245;BME280;25963;42.694;23.600;2023-03-04T01:31:31;95181.72;;;5.02;100.00
40245;BME280;25963;42.694;23.600;2023-03-04T01:33:56;95179.72;;;5.04;100.00
40245;BME280;25963;42.694;23.600;2023-03-04T01:36:22;95181.09;;;5.00;100.00
40245;BME280;25963;42.694;23.600;2023-03-04T01:38:47;95172.44;;;5.00;100.00
40245;BME280;25963;42.694;23.600;2023-03-04T01:41:13;95171.97;;;4.96;100.00
40245;BME280;25963;42.694;23.600;2023-03-04T01:43:40;95175.22;;;4.98;100.00
40245;BME280;25963;42.694;23.600;2023-03-04T01:46:06;95169.56;;;4.95;100.00
40245;BME280;25963;42.694;23.600;2023-03-04T01:48:36;95170.19;;;4.97;100.00
40245;BME280;25963;42.694;23.600;2023-03-04T01:51:04;95161.72;;;4.95;100.00
40245;BME280;25963;42.694;23.600;2023-03-04T01:53:32;95158.41;;;4.86;100.00
40245;BME280;25963;42.694;23.600;2023-03-04T01:56:22;95156.59;;;4.87;100.00
40245;BME280;25963;42.694;23.600;2023-03-04T01:59:20;95166.22;;;4.86;100.00
40245;BME280;25963;42.694;23.600;2023-03-04T02:01:54;95159.75;;;4.82;100.00
40245;BME280;25963;42.694;23.600;2023-03-04T02:04:25;95167.31;;;4.77;100.00
40245;BME280;25963;42.694;23.600;2023-03-04T02:06:52;95156.78;;;4.70;100.00
40245;BME280;25963;42.694;23.600;2023-03-04T02:09:20;95157.75;;;4.69;100.00
40245;BME280;25963;42.694;23.600;2023-03-04T02:11:46;95160.28;;;4.63;100.00
40245;BME280;25963;42.694;23.600;2023-03-04T02:14:14;95166.88;;;4.58;100.00
40245;BME280;25963;42.694;23.600;2023-03-04T02:16:40;95171.81;;;4.53;100.00
40245;BME280;25963;42.694;23.600;2023-03-04T02:19:15;95162.91;;;4.48;100.00
40245;BME280;25963;42.694;23.600;2023-03-04T02:21:43;95167.13;;;4.34;100.00
40245;BME280;25963;42.694;23.600;2023-03-04T02:26:49;95158.09;;;4.22;100.00
40245;BME280;25963;42.694;23.600;2023-03-04T02:29:16;95160.44;;;4.17;100.00
40245;BME280;25963;42.694;23.600;2023-03-04T02:31:49;95154.94;;;4.11;100.00
40245;BME280;25963;42.694;23.600;2023-03-04T02:34:28;95161.50;;;4.07;100.00
40245;BME280;25963;42.694;23.600;2023-03-04T02:36:56;95160.41;;;4.02;100.00
40245;BME280;25963;42.694;23.600;2023-03-04T02:39:30;95154.09;;;3.96;100.00
40245;BME280;25963;42.694;23.600;2023-03-04T02:41:57;95158.06;;;3.92;100.00
40245;BME280;25963;42.694;23.600;2023-03-04T02:44:27;95157.31;;;3.83;100.00
40245;BME280;25963;42.694;23.600;2023-03-04T02:46:54;95167.09;;;3.81;100.00
40245;BME280;25963;42.694;23.600;2023-03-04T02:49:21;95163.28;;;3.69;100.00
40245;BME280;25963;42.694;23.600;2023-03-04T02:51:51;95157.06;;;3.70;100.00
40245;BME280;25963;42.694;23.600;2023-03-04T02:54:22;95157.75;;;3.64;100.00
40245;BME280;25963;42.694;23.600;2023-03-04T02:56:49;95162.34;;;3.62;100.00
40245;BME280;25963;42.694;23.600;2023-03-04T02:59:15;95153.44;;;3.56;100.00
40245;BME280;25963;42.694;23.600;2023-03-04T03:01:41;95156.09;;;3.48;100.00
40245;BME280;25963;42.694;23.600;2023-03-04T03:04:06;95168.75;;;3.28;100.00
40245;BME280;25963;42.694;23.600;2023-03-04T03:06:32;95157.59;;;3.42;100.00
40245;BME280;25963;42.694;23.600;2023-03-04T03:08:57;95160.31;;;3.49;100.00
40245;BME280;25963;42.694;23.600;2023-03-04T03:11:22;95162.56;;;3.52;100.00
40245;BME280;25963;42.694;23.600;2023-03-04T03:13:48;95160.78;;;3.53;100.00
40245;BME280;25963;42.694;23.600;2023-03-04T03:16:13;95153.47;;;3.48;100.00
40245;BME280;25963;42.694;23.600;2023-03-04T03:18:39;95156.44;;;3.45;100.00
40245;BME280;25963;42.694;23.600;2023-03-04T03:21:05;95158.03;;;3.46;100.00
40245;BME280;25963;42.694;23.600;2023-03-04T03:23:31;95153.19;;;3.43;100.00
40245;BME280;25963;42.694;23.600;2023-03-04T03:25:56;95164.31;;;3.37;100.00
40245;BME280;25963;42.694;23.600;2023-03-04T03:28:22;95160.25;;;3.34;100.00
40245;BME280;25963;42.694;23.600;2023-03-04T03:30:47;95163.19;;;3.08;100.00
40245;BME280;25963;42.694;23.600;2023-03-04T03:33:13;95162.06;;;3.03;100.00
40245;BME280;25963;42.694;23.600;2023-03-04T03:35:38;95157.47;;;3.05;100.00
40245;BME280;25963;42.694;23.600;2023-03-04T03:38:03;95153.00;;;2.90;100.00
40245;BME280;25963;42.694;23.600;2023-03-04T03:40:29;95158.06;;;2.84;100.00
40245;BME280;25963;42.694;23.600;2023-03-04T03:42:55;95151.00;;;2.61;100.00
40245;BME280;25963;42.694;23.600;2023-03-04T03:45:20;95145.56;;;2.71;100.00
40245;BME280;25963;42.694;23.600;2023-03-04T03:47:46;95153.25;;;2.72;100.00
40245;BME280;25963;42.694;23.600;2023-03-04T03:50:11;95148.84;;;2.73;100.00
40245;BME280;25963;42.694;23.600;2023-03-04T03:52:37;95152.25;;;2.73;100.00
40245;BME280;25963;42.694;23.600;2023-03-04T03:55:03;95144.47;;;2.57;100.00
40245;BME280;25963;42.694;23.600;2023-03-04T03:57:28;95146.75;;;2.60;100.00
40245;BME280;25963;42.694;23.600;2023-03-04T03:59:55;95140.56;;;2.61;100.00
40245;BME280;25963;42.694;23.600;2023-03-04T04:02:21;95133.09;;;2.58;100.00
40245;BME280;25963;42.694;23.600;2023-03-04T04:04:47;95145.31;;;2.58;100.00
40245;BME280;25963;42.694;23.600;2023-03-04T04:07:12;95143.50;;;2.58;100.00
40245;BME280;25963;42.694;23.600;2023-03-04T04:09:38;95136.50;;;2.59;100.00
40245;BME280;25963;42.694;23.600;2023-03-04T04:12:04;95134.38;;;2.62;100.00
40245;BME280;25963;42.694;23.600;2023-03-04T04:14:30;95130.63;;;2.65;100.00
40245;BME280;25963;42.694;23.600;2023-03-04T04:16:56;95146.91;;;2.67;100.00
40245;BME280;25963;42.694;23.600;2023-03-04T04:19:21;95132.88;;;2.68;100.00
40245;BME280;25963;42.694;23.600;2023-03-04T04:21:47;95134.06;;;2.57;100.00
40245;BME280;25963;42.694;23.600;2023-03-04T04:24:12;95125.44;;;2.57;100.00
40245;BME280;25963;42.694;23.600;2023-03-04T04:26:38;95133.25;;;2.57;100.00
40245;BME280;25963;42.694;23.600;2023-03-04T04:29:04;95135.69;;;2.58;100.00
40245;BME280;25963;42.694;23.600;2023-03-04T04:31:29;95137.50;;;2.58;100.00
40245;BME280;25963;42.694;23.600;2023-03-04T04:33:54;95139.91;;;2.59;100.00
40245;BME280;25963;42.694;23.600;2023-03-04T04:36:20;95131.78;;;2.62;100.00
40245;BME280;25963;42.694;23.600;2023-03-04T04:38:45;95138.78;;;2.62;100.00
40245;BME280;25963;42.694;23.600;2023-03-04T04:41:24;95136.19;;;2.54;100.00
40245;BME280;25963;42.694;23.600;2023-03-04T04:43:50;95140.13;;;2.49;100.00
40245;BME280;25963;42.694;23.600;2023-03-04T04:46:16;95141.91;;;2.49;100.00
40245;BME280;25963;42.694;23.600;2023-03-04T04:48:41;95144.53;;;2.49;100.00
40245;BME280;25963;42.694;23.600;2023-03-04T04:51:07;95141.28;;;2.47;100.00
40245;BME280;25963;42.694;23.600;2023-03-04T04:53:32;95145.47;;;2.56;100.00
40245;BME280;25963;42.694;23.600;2023-03-04T04:55:58;95140.72;;;2.60;100.00
40245;BME280;25963;42.694;23.600;2023-03-04T04:58:23;95138.66;;;2.55;100.00
40245;BME280;25963;42.694;23.600;2023-03-04T05:00:49;95142.53;;;2.51;100.00
40245;BME280;25963;42.694;23.600;2023-03-04T05:03:14;95144.13;;;2.68;100.00
40245;BME280;25963;42.694;23.600;2023-03-04T05:05:40;95144.78;;;2.62;100.00
40245;BME280;25963;42.694;23.600;2023-03-04T05:08:06;95155.53;;;2.67;100.00
40245;BME280;25963;42.694;23.600;2023-03-04T05:10:31;95157.13;;;2.77;100.00
40245;BME280;25963;42.694;23.600;2023-03-04T05:12:57;95156.78;;;2.80;100.00
40245;BME280;25963;42.694;23.600;2023-03-04T05:15:22;95158.84;;;2.92;100.00
40245;BME280;25963;42.694;23.600;2023-03-04T05:17:48;95156.91;;;2.86;100.00
40245;BME280;25963;42.694;23.600;2023-03-04T05:20:13;95163.53;;;2.97;100.00
40245;BME280;25963;42.694;23.600;2023-03-04T05:22:39;95160.63;;;2.92;100.00
40245;BME280;25963;42.694;23.600;2023-03-04T05:25:04;95161.72;;;3.06;100.00
40245;BME280;25963;42.694;23.600;2023-03-04T05:27:31;95159.22;;;3.12;100.00
40245;BME280;25963;42.694;23.600;2023-03-04T05:29:56;95158.34;;;3.20;100.00
40245;BME280;25963;42.694;23.600;2023-03-04T05:32:24;95163.03;;;3.33;100.00
40245;BME280;25963;42.694;23.600;2023-03-04T05:34:50;95164.66;;;3.34;100.00
40245;BME280;25963;42.694;23.600;2023-03-04T05:37:15;95173.69;;;3.46;100.00
40245;BME280;25963;42.694;23.600;2023-03-04T05:39:41;95169.88;;;3.57;100.00
40245;BME280;25963;42.694;23.600;2023-03-04T05:42:06;95173.25;;;3.65;100.00
40245;BME280;25963;42.694;23.600;2023-03-04T05:44:31;95182.03;;;3.64;100.00
40245;BME280;25963;42.694;23.600;2023-03-04T05:46:57;95184.78;;;3.71;100.00
40245;BME280;25963;42.694;23.600;2023-03-04T05:49:22;95183.91;;;3.79;100.00
40245;BME280;25963;42.694;23.600;2023-03-04T05:51:48;95180.31;;;3.80;100.00
40245;BME280;25963;42.694;23.600;2023-03-04T05:54:13;95184.00;;;3.85;100.00
40245;BME280;25963;42.694;23.600;2023-03-04T05:56:39;95182.06;;;3.87;100.00
40245;BME280;25963;42.694;23.600;2023-03-04T05:59:04;95176.84;;;3.87;100.00
40245;BME280;25963;42.694;23.600;2023-03-04T06:01:29;95176.84;;;3.87;100.00
40245;BME280;25963;42.694;23.600;2023-03-04T06:03:55;95177.63;;;3.88;100.00
40245;BME280;25963;42.694;23.600;2023-03-04T06:06:21;95183.09;;;4.01;100.00
40245;BME280;25963;42.694;23.600;2023-03-04T06:08:46;95188.50;;;4.15;100.00
40245;BME280;25963;42.694;23.600;2023-03-04T06:11:12;95185.03;;;4.22;100.00
40245;BME280;25963;42.694;23.600;2023-03-04T06:13:37;95190.00;;;4.32;100.00
40245;BME280;25963;42.694;23.600;2023-03-04T06:16:03;95187.47;;;4.39;100.00
40245;BME280;25963;42.694;23.600;2023-03-04T06:18:29;95193.44;;;4.47;100.00
40245;BME280;25963;42.694;23.600;2023-03-04T06:20:59;95191.19;;;4.59;100.00
40245;BME280;25963;42.694;23.600;2023-03-04T06:23:25;95186.88;;;4.66;100.00
40245;BME280;25963;42.694;23.600;2023-03-04T06:25:54;95189.66;;;4.65;100.00
40245;BME280;25963;42.694;23.600;2023-03-04T06:28:21;95191.19;;;4.74;100.00
40245;BME280;25963;42.694;23.600;2023-03-04T06:30:46;95188.69;;;4.80;100.00
40245;BME280;25963;42.694;23.600;2023-03-04T06:33:11;95192.00;;;4.89;100.00
40245;BME280;25963;42.694;23.600;2023-03-04T06:35:37;95198.13;;;4.96;100.00
40245;BME280;25963;42.694;23.600;2023-03-04T06:38:02;95193.72;;;4.97;100.00
40245;BME280;25963;42.694;23.600;2023-03-04T06:40:28;95186.69;;;4.97;100.00
40245;BME280;25963;42.694;23.600;2023-03-04T06:42:53;95202.09;;;5.07;100.00
40245;BME280;25963;42.694;23.600;2023-03-04T06:45:19;95183.78;;;5.07;100.00
40245;BME280;25963;42.694;23.600;2023-03-04T06:47:44;95194.97;;;5.16;100.00
40245;BME280;25963;42.694;23.600;2023-03-04T06:50:11;95198.72;;;5.28;100.00
40245;BME280;25963;42.694;23.600;2023-03-04T06:52:37;95194.19;;;5.37;100.00
40245;BME280;25963;42.694;23.600;2023-03-04T06:55:03;95196.00;;;5.36;100.00
40245;BME280;25963;42.694;23.600;2023-03-04T06:57:28;95198.28;;;5.24;100.00
40245;BME280;25963;42.694;23.600;2023-03-04T06:59:54;95196.00;;;5.36;100.00
40245;BME280;25963;42.694;23.600;2023-03-04T07:02:19;95205.09;;;5.40;100.00
40245;BME280;25963;42.694;23.600;2023-03-04T07:04:45;95202.38;;;5.48;100.00
40245;BME280;25963;42.694;23.600;2023-03-04T07:07:11;95202.88;;;5.59;100.00
40245;BME280;25963;42.694;23.600;2023-03-04T07:09:36;95210.63;;;5.67;100.00
40245;BME280;25963;42.694;23.600;2023-03-04T07:12:02;95202.66;;;5.75;100.00
40245;BME280;25963;42.694;23.600;2023-03-04T07:14:28;95212.25;;;5.68;100.00
40245;BME280;25963;42.694;23.600;2023-03-04T07:16:54;95204.28;;;5.76;100.00
40245;BME280;25963;42.694;23.600;2023-03-04T07:19:20;95214.63;;;5.84;100.00
40245;BME280;25963;42.694;23.600;2023-03-04T07:21:45;95208.31;;;5.93;100.00
40245;BME280;25963;42.694;23.600;2023-03-04T07:24:11;95208.34;;;5.79;100.00
40245;BME280;25963;42.694;23.600;2023-03-04T07:26:37;95206.53;;;5.79;100.00
40245;BME280;25963;42.694;23.600;2023-03-04T07:29:03;95209.91;;;5.94;100.00
40245;BME280;25963;42.694;23.600;2023-03-04T07:31:30;95207.44;;;6.08;100.00
40245;BME280;25963;42.694;23.600;2023-03-04T07:33:58;95212.47;;;6.09;100.00
40245;BME280;25963;42.694;23.600;2023-03-04T07:36:24;95216.41;;;6.20;100.00
40245;BME280;25963;42.694;23.600;2023-03-04T07:38:50;95214.78;;;6.19;100.00
40245;BME280;25963;42.694;23.600;2023-03-04T07:41:17;95215.31;;;6.08;100.00
40245;BME280;25963;42.694;23.600;2023-03-04T07:43:43;95214.28;;;6.09;100.00
40245;BME280;25963;42.694;23.600;2023-03-04T07:46:09;95210.00;;;6.23;100.00
40245;BME280;25963;42.694;23.600;2023-03-04T07:48:35;95212.78;;;6.21;100.00
40245;BME280;25963;42.694;23.600;2023-03-04T07:51:14;95211.59;;;6.24;100.00
40245;BME280;25963;42.694;23.600;2023-03-04T07:53:42;95216.28;;;6.28;100.00
40245;BME280;25963;42.694;23.600;2023-03-04T07:56:15;95210.84;;;6.30;100.00
40245;BME280;25963;42.694;23.600;2023-03-04T07:58:41;95211.47;;;6.32;100.00
40245;BME280;25963;42.694;23.600;2023-03-04T08:01:11;95209.22;;;6.29;100.00
40245;BME280;25963;42.694;23.600;2023-03-04T08:03:37;95208.19;;;6.23;100.00
40245;BME280;25963;42.694;23.600;2023-03-04T08:06:04;95207.81;;;6.26;100.00
40245;BME280;25963;42.694;23.600;2023-03-04T08:08:30;95205.44;;;6.31;100.00
40245;BME280;25963;42.694;23.600;2023-03-04T08:10:55;95208.13;;;6.45;100.00
40245;BME280;25963;42.694;23.600;2023-03-04T08:13:20;95208.81;;;6.53;100.00
40245;BME280;25963;42.694;23.600;2023-03-04T08:15:46;95203.19;;;6.56;100.00
40245;BME280;25963;42.694;23.600;2023-03-04T08:18:12;95211.50;;;6.67;100.00
40245;BME280;25963;42.694;23.600;2023-03-04T08:20:40;95202.94;;;6.79;100.00
40245;BME280;25963;42.694;23.600;2023-03-04T08:23:07;95202.38;;;6.91;100.00
40245;BME280;25963;42.694;23.600;2023-03-04T08:25:32;95208.19;;;6.79;100.00
40245;BME280;25963;42.694;23.600;2023-03-04T08:27:58;95212.19;;;6.47;100.00
40245;BME280;25963;42.694;23.600;2023-03-04T08:30:23;95202.06;;;6.72;100.00
40245;BME280;25963;42.694;23.600;2023-03-04T08:32:49;95211.09;;;6.63;100.00
40245;BME280;25963;42.694;23.600;2023-03-04T08:35:14;95198.78;;;6.92;100.00
40245;BME280;25963;42.694;23.600;2023-03-04T08:37:40;95204.31;;;7.10;100.00
40245;BME280;25963;42.694;23.600;2023-03-04T08:40:05;95198.53;;;7.21;100.00
40245;BME280;25963;42.694;23.600;2023-03-04T08:42:31;95200.22;;;7.49;100.00
40245;BME280;25963;42.694;23.600;2023-03-04T08:44:57;95199.44;;;7.55;100.00
40245;BME280;25963;42.694;23.600;2023-03-04T08:47:22;95208.75;;;7.64;100.00
40245;BME280;25963;42.694;23.600;2023-03-04T08:49:47;95208.84;;;7.91;100.00
40245;BME280;25963;42.694;23.600;2023-03-04T08:52:13;95201.19;;;8.09;100.00
40245;BME280;25963;42.694;23.600;2023-03-04T08:54:38;95200.38;;;8.22;100.00
40245;BME280;25963;42.694;23.600;2023-03-04T08:57:04;95197.19;;;8.47;100.00
40245;BME280;25963;42.694;23.600;2023-03-04T08:59:31;95211.31;;;8.26;100.00
40245;BME280;25963;42.694;23.600;2023-03-04T09:01:57;95209.69;;;8.11;100.00
40245;BME280;25963;42.694;23.600;2023-03-04T09:04:22;95207.25;;;8.23;100.00
40245;BME280;25963;42.694;23.600;2023-03-04T09:06:48;95202.41;;;8.20;100.00
40245;BME280;25963;42.694;23.600;2023-03-04T09:09:14;95200.38;;;8.02;100.00
40245;BME280;25963;42.694;23.600;2023-03-04T09:11:39;95193.88;;;7.98;100.00
40245;BME280;25963;42.694;23.600;2023-03-04T09:14:05;95202.72;;;7.84;100.00
40245;BME280;25963;42.694;23.600;2023-03-04T09:16:30;95200.56;;;8.07;100.00
40245;BME280;25963;42.694;23.600;2023-03-04T09:18:55;95194.13;;;8.23;100.00
40245;BME280;25963;42.694;23.600;2023-03-04T09:21:21;95191.47;;;8.16;100.00
40245;BME280;25963;42.694;23.600;2023-03-04T09:23:47;95185.81;;;8.13;100.00
40245;BME280;25963;42.694;23.600;2023-03-04T09:26:22;95196.09;;;7.94;100.00
40245;BME280;25963;42.694;23.600;2023-03-04T09:28:59;95189.44;;;7.98;100.00
40245;BME280;25963;42.694;23.600;2023-03-04T09:31:25;95181.97;;;8.09;100.00
40245;BME280;25963;42.694;23.600;2023-03-04T09:33:52;95183.78;;;8.28;100.00
40245;BME280;25963;42.694;23.600;2023-03-04T09:36:18;95180.81;;;8.44;100.00
40245;BME280;25963;42.694;23.600;2023-03-04T09:38:44;95182.41;;;8.45;100.00
40245;BME280;25963;42.694;23.600;2023-03-04T09:41:22;95182.59;;;8.71;100.00
40245;BME280;25963;42.694;23.600;2023-03-04T09:43:49;95174.88;;;8.76;100.00
40245;BME280;25963;42.694;23.600;2023-03-04T09:46:33;95169.63;;;8.76;100.00
40245;BME280;25963;42.694;23.600;2023-03-04T09:49:00;95185.00;;;8.72;100.00
40245;BME280;25963;42.694;23.600;2023-03-04T09:57:39;95172.44;;;9.46;100.00
40245;BME280;25963;42.694;23.600;2023-03-04T10:00:18;95160.94;;;9.72;100.00
40245;BME280;25963;42.694;23.600;2023-03-04T10:05:32;95156.72;;;10.02;100.00
40245;BME280;25963;42.694;23.600;2023-03-04T10:08:04;95159.25;;;10.16;100.00
40245;BME280;25963;42.694;23.600;2023-03-04T10:10:36;95146.06;;;10.47;100.00
40245;BME280;25963;42.694;23.600;2023-03-04T10:13:05;95136.78;;;10.82;100.00
40245;BME280;25963;42.694;23.600;2023-03-04T10:15:39;95140.44;;;10.37;100.00
40245;BME280;25963;42.694;23.600;2023-03-04T10:18:24;95134.03;;;10.51;100.00
40245;BME280;25963;42.694;23.600;2023-03-04T10:21:00;95137.22;;;10.79;100.00
40245;BME280;25963;42.694;23.600;2023-03-04T10:23:27;95129.97;;;10.74;100.00
40245;BME280;25963;42.694;23.600;2023-03-04T10:25:54;95121.91;;;11.06;100.00
40245;BME280;25963;42.694;23.600;2023-03-04T10:33:25;95126.16;;;11.25;100.00
40245;BME280;25963;42.694;23.600;2023-03-04T10:38:57;95114.50;;;11.14;100.00
40245;BME280;25963;42.694;23.600;2023-03-04T10:41:26;95118.31;;;11.00;100.00
40245;BME280;25963;42.694;23.600;2023-03-04T10:43:59;95107.84;;;10.93;100.00
40245;BME280;25963;42.694;23.600;2023-03-04T10:46:25;95098.69;;;10.78;100.00
40245;BME280;25963;42.694;23.600;2023-03-04T10:48:52;95103.59;;;10.74;100.00
40245;BME280;25963;42.694;23.600;2023-03-04T10:53:47;95090.66;;;11.03;100.00
40245;BME280;25963;42.694;23.600;2023-03-04T10:56:41;95091.56;;;10.60;100.00
40245;BME280;25963;42.694;23.600;2023-03-04T10:59:30;95097.72;;;10.72;100.00
40245;BME280;25963;42.694;23.600;2023-03-04T11:01:57;95087.88;;;10.79;100.00
40245;BME280;25963;42.694;23.600;2023-03-04T11:04:24;95089.44;;;10.50;100.00
40245;BME280;25963;42.694;23.600;2023-03-04T11:06:50;95077.16;;;10.12;100.00
40245;BME280;25963;42.694;23.600;2023-03-04T11:09:27;95072.88;;;10.61;100.00
40245;BME280;25963;42.694;23.600;2023-03-04T11:12:00;95062.00;;;10.88;100.00
40245;BME280;25963;42.694;23.600;2023-03-04T11:14:46;95073.38;;;10.88;100.00
40245;BME280;25963;42.694;23.600;2023-03-04T11:17:20;95059.66;;;11.16;100.00
40245;BME280;25963;42.694;23.600;2023-03-04T11:19:54;95058.09;;;11.39;100.00
40245;BME280;25963;42.694;23.600;2023-03-04T11:22:22;95061.13;;;11.54;100.00
40245;BME280;25963;42.694;23.600;2023-03-04T11:24:56;95056.47;;;11.68;99.98
40245;BME280;25963;42.694;23.600;2023-03-04T11:27:35;95051.19;;;11.68;100.00
40245;BME280;25963;42.694;23.600;2023-03-04T11:32:45;95039.78;;;12.09;100.00
40245;BME280;25963;42.694;23.600;2023-03-04T11:35:32;95026.44;;;12.28;100.00
40245;BME280;25963;42.694;23.600;2023-03-04T11:38:23;95036.44;;;12.14;95.32
40245;BME280;25963;42.694;23.600;2023-03-04T11:40:53;95021.16;;;12.16;100.00
40245;BME280;25963;42.694;23.600;2023-03-04T11:43:26;95015.66;;;12.29;100.00
40245;BME280;25963;42.694;23.600;2023-03-04T11:54:31;94999.75;;;12.93;100.00
40245;BME280;25963;42.694;23.600;2023-03-04T11:57:12;95001.13;;;12.96;97.64
40245;BME280;25963;42.694;23.600;2023-03-04T12:16:21;94988.22;;;12.59;90.18
40245;BME280;25963;42.694;23.600;2023-03-04T12:24:31;94973.91;;;11.73;91.88
40245;BME280;25963;42.694;23.600;2023-03-04T12:27:22;94965.03;;;11.55;94.13
40245;BME280;25963;42.694;23.600;2023-03-04T12:30:02;94971.78;;;11.63;94.87
40245;BME280;25963;42.694;23.600;2023-03-04T12:40:40;94959.91;;;11.30;92.34
40245;BME280;25963;42.694;23.600;2023-03-04T12:51:44;94945.59;;;11.38;94.00
40245;BME280;25963;42.694;23.600;2023-03-04T12:56:52;94943.84;;;11.32;94.65
40245;BME280;25963;42.694;23.600;2023-03-04T12:59:20;94938.28;;;11.52;97.14
40245;BME280;25963;42.694;23.600;2023-03-04T13:10:00;94927.44;;;11.41;93.55
40245;BME280;25963;42.694;23.600;2023-03-04T13:12:49;94920.31;;;11.42;94.03
40245;BME280;25963;42.694;23.600;2023-03-04T13:17:54;94930.56;;;11.50;93.31
40245;BME280;25963;42.694;23.600;2023-03-04T13:23:40;94916.28;;;11.39;92.61
40245;BME280;25963;42.694;23.600;2023-03-04T13:25:42;94909.50;;;11.20;92.90
40245;BME280;25963;42.694;23.600;2023-03-04T13:38:30;94910.56;;;11.19;94.63
40245;BME280;25963;42.694;23.600;2023-03-04T13:41:23;94903.75;;;11.11;97.64
40245;BME280;25963;42.694;23.600;2023-03-04T13:43:54;94897.09;;;11.09;98.26
40245;BME280;25963;42.694;23.600;2023-03-04T13:51:38;94896.25;;;10.96;97.82
40245;BME280;25963;42.694;23.600;2023-03-04T13:56:44;94894.38;;;10.85;98.58
40245;BME280;25963;42.694;23.600;2023-03-04T14:04:20;94888.06;;;10.44;98.20
40245;BME280;25963;42.694;23.600;2023-03-04T14:06:50;94887.72;;;10.71;97.80
40245;BME280;25963;42.694;23.600;2023-03-04T14:09:28;94886.34;;;10.80;97.51
40245;BME280;25963;42.694;23.600;2023-03-04T14:11:55;94874.63;;;10.76;99.82
40245;BME280;25963;42.694;23.600;2023-03-04T14:14:23;94879.34;;;10.86;98.77
40245;BME280;25963;42.694;23.600;2023-03-04T14:16:58;94870.56;;;10.92;97.24
40245;BME280;25963;42.694;23.600;2023-03-04T14:19:31;94868.16;;;11.02;100.00
40245;BME280;25963;42.694;23.600;2023-03-04T14:21:59;94869.16;;;10.89;96.34
40245;BME280;25963;42.694;23.600;2023-03-04T14:24:25;94873.09;;;10.99;96.40
40245;BME280;25963;42.694;23.600;2023-03-04T14:27:09;94871.00;;;10.59;94.28
40245;BME280;25963;42.694;23.600;2023-03-04T14:29:35;94865.66;;;10.65;95.91
40245;BME280;25963;42.694;23.600;2023-03-04T14:32:04;94864.97;;;10.70;95.24
40245;BME280;25963;42.694;23.600;2023-03-04T14:34:32;94858.44;;;10.72;96.77
40245;BME280;25963;42.694;23.600;2023-03-04T14:37:03;94858.34;;;10.79;97.48
40245;BME280;25963;42.694;23.600;2023-03-04T14:39:41;94860.41;;;10.77;98.50
40245;BME280;25963;42.694;23.600;2023-03-04T14:42:09;94858.69;;;10.83;97.27
40245;BME280;25963;42.694;23.600;2023-03-04T14:44:48;94849.88;;;10.77;95.10